Latest Weather Observations for Frankston Beach

IDV60901

Issued at 8:31 pm EDT Sunday 24 January 2021 (issued every 10 minutes, with the page automatically refreshed every 10 minutes)

About weather observations | Map of Melbourne area stations | Latest observations for Melbourne area | Other Formats
Station Details ID: 086371 Name: FRANKSTON BEACH Lat: -38.15 Lon: 145.12 Height: 6.0 m
Data from the previous 72 hours. | See also: Recent months at Frankston Beach
Date/Time
EDT
Temp
°C
App
Temp
°C
Dew
Point
°C
Rel
Hum
%
Delta-T
°C
Wind Press
QNH
hPa
Press
MSL
hPa
Rain since
9am
mm
Dir  Spd
km/h
Gust
km/h
Spd
kts
Gust
kts
24/08:30pm - - - - - E 7 11 4 6 - - -
24/08:00pm - - - - - ENE 11 15 6 8 - - -
24/07:30pm - - - - - E 13 19 7 10 - - -
24/07:00pm - - - - - E 13 19 7 10 - - -
24/06:30pm - - - - - E 11 17 6 9 - - -
24/06:00pm - - - - - E 11 15 6 8 - - -
24/05:30pm - - - - - ESE 11 20 6 11 - - -
24/05:00pm - - - - - SW 2 7 1 4 - - -
24/04:30pm - - - - - SW 9 13 5 7 - - -
24/04:00pm - - - - - CALM 0 2 0 1 - - -
24/03:30pm - - - - - SW 7 7 4 4 - - -
24/03:00pm - - - - - SW 9 11 5 6 - - -
24/02:30pm - - - - - SW 9 13 5 7 - - -
24/02:00pm - - - - - SW 11 11 6 6 - - -
24/01:30pm - - - - - SW 13 15 7 8 - - -
24/01:00pm - - - - - WSW 11 13 6 7 - - -
24/12:30pm - - - - - WSW 9 9 5 5 - - -
24/12:00pm - - - - - WSW 7 9 4 5 - - -
24/11:30am - - - - - SW 9 11 5 6 - - -
24/11:00am - - - - - SW 6 7 3 4 - - -
24/10:30am - - - - - SW 7 9 4 5 - - -
24/10:00am - - - - - CALM 0 0 0 0 - - -
24/09:30am - - - - - CALM 0 0 0 0 - - -
24/09:00am - - - - - CALM 0 0 0 0 - - -
24/08:30am - - - - - CALM 0 0 0 0 - - -
24/08:00am - - - - - ESE 2 7 1 4 - - -
24/07:30am - - - - - ESE 7 9 4 5 - - -
24/07:00am - - - - - ESE 6 7 3 4 - - -
24/06:30am - - - - - E 9 11 5 6 - - -
24/06:00am - - - - - ESE 9 9 5 5 - - -
24/05:30am - - - - - ESE 9 11 5 6 - - -
24/05:00am - - - - - ESE 11 11 6 6 - - -
24/04:30am - - - - - CALM 0 7 0 4 - - -
24/04:00am - - - - - S 6 9 3 5 - - -
24/03:30am - - - - - CALM 0 0 0 0 - - -
24/03:00am - - - - - SE 7 11 4 6 - - -
24/02:30am - - - - - SSE 9 13 5 7 - - -
24/02:00am - - - - - SE 9 11 5 6 - - -
24/01:30am - - - - - ENE 9 13 5 7 - - -
24/01:00am - - - - - WSW 7 11 4 6 - - -
24/12:30am - - - - - NW 7 9 4 5 - - -
24/12:00am - - - - - ESE 6 7 3 4 - - -
 
Date/Time
EDT
Temp
°C
App
Temp
°C
Dew
Point
°C
Rel
Hum
%
Delta-T
°C
Wind Press
QNH
hPa
Press
MSL
hPa
Rain since
9am
mm
Dir  Spd
km/h
Gust
km/h
Spd
kts
Gust
kts
23/11:30pm - - - - - SSW 7 11 4 6 - - -
23/11:00pm - - - - - ESE 13 19 7 10 - - -
23/10:30pm - - - - - SE 15 26 8 14 - - -
23/10:00pm - - - - - SE 17 28 9 15 - - -
23/09:30pm - - - - - SE 17 24 9 13 - - -
23/09:00pm - - - - - SSE 17 28 9 15 - - -
23/08:30pm - - - - - SSE 9 17 5 9 - - -
23/08:00pm - - - - - SSE 15 24 8 13 - - -
23/07:30pm - - - - - SE 15 26 8 14 - - -
23/07:00pm - - - - - SE 19 30 10 16 - - -
23/06:30pm - - - - - SSE 17 26 9 14 - - -
23/06:00pm - - - - - SE 15 26 8 14 - - -
23/05:30pm - - - - - SE 13 22 7 12 - - -
23/05:00pm - - - - - ESE 13 20 7 11 - - -
23/04:30pm - - - - - SSE 11 20 6 11 - - -
23/04:00pm - - - - - WSW 22 26 12 14 - - -
23/03:30pm - - - - - WSW 28 33 15 18 - - -
23/03:00pm - - - - - WSW 28 30 15 16 - - -
23/02:30pm - - - - - WSW 22 26 12 14 - - -
23/02:00pm - - - - - WSW 17 19 9 10 - - -
23/01:30pm - - - - - WSW 17 19 9 10 - - -
23/01:00pm - - - - - WSW 20 22 11 12 - - -
23/12:30pm - - - - - WSW 19 20 10 11 - - -
23/12:00pm - - - - - WSW 19 20 10 11 - - -
23/11:30am - - - - - WSW 19 22 10 12 - - -
23/11:00am - - - - - WSW 17 20 9 11 - - -
23/10:30am - - - - - WSW 11 15 6 8 - - -
23/10:00am - - - - - WNW 11 13 6 7 - - -
23/09:30am - - - - - W 9 13 5 7 - - -
23/09:00am - - - - - NW 9 11 5 6 - - -
23/08:30am - - - - - SW 7 9 4 5 - - -
23/08:00am - - - - - SE 4 11 2 6 - - -
23/07:30am - - - - - ESE 7 11 4 6 - - -
23/07:00am - - - - - ESE 6 9 3 5 - - -
23/06:30am - - - - - SSE 6 9 3 5 - - -
23/06:00am - - - - - SE 6 7 3 4 - - -
23/05:30am - - - - - SE 2 7 1 4 - - -
23/05:00am - - - - - SSE 7 13 4 7 - - -
23/04:30am - - - - - SSW 6 13 3 7 - - -
23/04:00am - - - - - S 9 11 5 6 - - -
23/03:30am - - - - - SSW 6 11 3 6 - - -
23/03:00am - - - - - CALM 0 0 0 0 - - -
23/02:30am - - - - - CALM 0 6 0 3 - - -
23/02:00am - - - - - CALM 0 0 0 0 - - -
23/01:30am - - - - - ESE 4 9 2 5 - - -
23/01:00am - - - - - CALM 0 0 0 0 - - -
23/12:30am - - - - - SSW 4 7 2 4 - - -
23/12:00am - - - - - SSW 6 9 3 5 - - -
 
Date/Time
EDT
Temp
°C
App
Temp
°C
Dew
Point
°C
Rel
Hum
%
Delta-T
°C
Wind Press
QNH
hPa
Press
MSL
hPa
Rain since
9am
mm
Dir  Spd
km/h
Gust
km/h
Spd
kts
Gust
kts
22/11:30pm - - - - - SSW 9 11 5 6 - - -
22/11:00pm - - - - - SSW 9 15 5 8 - - -
22/10:30pm - - - - - S 9 15 5 8 - - -
22/10:00pm - - - - - S 9 13 5 7 - - -
22/09:30pm - - - - - S 11 15 6 8 - - -
22/09:00pm - - - - - SSE 11 19 6 10 - - -
22/08:30pm - - - - - SSE 11 17 6 9 - - -
22/08:00pm - - - - - SSE 13 19 7 10 - - -
22/07:30pm - - - - - SSE 9 15 5 8 - - -
22/07:00pm - - - - - SSE 13 22 7 12 - - -
22/06:30pm - - - - - SSE 13 20 7 11 - - -
22/06:00pm - - - - - SSW 17 24 9 13 - - -
22/05:30pm - - - - - SW 19 32 10 17 - - -
22/05:00pm - - - - - WSW 35 37 19 20 - - -
22/04:30pm - - - - - WSW 35 39 19 21 - - -
22/04:00pm - - - - - WSW 32 35 17 19 - - -
22/03:30pm - - - - - WSW 24 28 13 15 - - -
22/03:00pm - - - - - WSW 22 26 12 14 - - -
22/02:30pm - - - - - WSW 24 28 13 15 - - -
22/02:00pm - - - - - WSW 26 30 14 16 - - -
22/01:30pm - - - - - WSW 32 35 17 19 - - -
22/01:00pm - - - - - WSW 32 35 17 19 - - -
22/12:30pm - - - - - WSW 32 35 17 19 - - -
22/12:00pm - - - - - WSW 30 33 16 18 - - -
22/11:30am - - - - - WSW 26 30 14 16 - - -
22/11:00am - - - - - WSW 20 24 11 13 - - -
22/10:30am - - - - - WSW 20 24 11 13 - - -
22/10:00am - - - - - WSW 17 19 9 10 - - -
22/09:30am - - - - - WSW 19 20 10 11 - - -
22/09:00am - - - - - WSW 19 20 10 11 - - -
22/08:30am - - - - - WSW 20 22 11 12 - - -
22/08:00am - - - - - WNW 17 19 9 10 - - -
22/07:30am - - - - - WNW 20 24 11 13 - - -
22/07:00am - - - - - NW 15 17 8 9 - - -
22/06:30am - - - - - NW 13 17 7 9 - - -
22/06:00am - - - - - NW 11 13 6 7 - - -
22/05:30am - - - - - WNW 11 15 6 8 - - -
22/05:00am - - - - - NW 13 17 7 9 - - -
22/04:30am - - - - - N 13 15 7 8 - - -
22/04:00am - - - - - NNW 11 13 6 7 - - -
22/03:30am - - - - - CALM 0 7 0 4 - - -
22/03:00am - - - - - CALM 0 0 0 0 - - -
22/02:30am - - - - - CALM 0 0 0 0 - - -
22/02:00am - - - - - E 6 7 3 4 - - -
22/01:30am - - - - - SW 11 15 6 8 - - -
22/01:00am - - - - - CALM 0 0 0 0 - - -
22/12:30am - - - - - S 6 7 3 4 - - -
22/12:00am - - - - - SSW 6 9 3 5 - - -
 
Date/Time
EDT
Temp
°C
App
Temp
°C
Dew
Point
°C
Rel
Hum
%
Delta-T
°C
Wind Press
QNH
hPa
Press
MSL
hPa
Rain since
9am
mm
Dir  Spd
km/h
Gust
km/h
Spd
kts
Gust
kts
21/11:30pm - - - - - ESE 9 15 5 8 - - -
21/11:00pm - - - - - SE 9 15 5 8 - - -
21/10:30pm - - - - - SE 11 17 6 9 - - -
21/10:00pm - - - - - SE 9 15 5 8 - - -
21/09:30pm - - - - - SE 13 19 7 10 - - -
21/09:00pm - - - - - SE 13 22 7 12 - - -

Latest Capital City Observations: Canberra | Sydney | Melbourne | Brisbane | Adelaide | Perth | Hobart | Darwin

Other formats

Comma delimited format used in spreadsheet applications
http://www.bom.gov.au/fwo/IDV60901/IDV60901.94871.axf

JavaScript Object Notation format (JSON) in row-major order
http://www.bom.gov.au/fwo/IDV60901/IDV60901.94871.json

Data quality

Most of these data are generated automatically and are frequently updated. Quality checks on data are not normally performed. It is possible for incorrect values to appear. Refer to information at About Latest Weather Observations and please check the disclaimer before using these data.